Aérodrome :
LOGIN :

S'inscrire | Disclaimer

   EN    FR    IT 

 










Légende :    VFR   VFR Marginal   IFR   IFR Intensif   IFR Très Intensif
Visi : 
Plafond : 
>= 8 km
>= 3000ft
5 à 8 km
1000 à 3000 ft
1500m à 5 km
500 à 1000 ft
800 à 1500m
200 à 500 ft
< 800m
< 200 ft
Symboles :   Orages  Brouillard  Fortes neiges  Fortes précipitations  Vent > 20 kt
SIGMETs :   Divers  Orages  Givrage  Turbulence  Onde Orograph.  Cendres Volcan.







- Altitude de l'aérodrome : 511 ft
- Code IATA : LHA


EDTL - Lahr Schwarzwald

DERNIER METAR :
  • 281150Z 26008KT 220V320 CAVOK 12/00 Q1015

METARs EXPIRÉS :
  • 281120Z 34009KT 310V020 CAVOK 10/M01 Q1015
  • 281020Z 36007KT 320V050 CAVOK 10/M00 Q1015
  • 280950Z 36006KT 320V070 CAVOK 10/01 Q1015
  • 280920Z 33005KT 290V040 CAVOK 09/01 Q1015

TAF TAF EDTL
Valide du 28 à 12h jusqu'au 28 à 21h UTC


281100Z 2812/2821 27005KT CAVOK
PROB30
TEMPO 2812/2815 33005KT SHRA SCT030TCU
BECMG 2818/2821 18004KT
Pas de NOTAMs connus pour ce terrain.



MET'MAP, la Météo Aéronautique d'un coup d'oeil ! - Copyright ORBIFLY Décembre 2007 - Disclaimer

ORBIFLY MET'MAP TEAM :

Programmation & Développement : Alexandra Zaïnal
Conception & Développement : Baudouin d'Aumeries
Co-Programmation & Développement : Marc-Olivier Méhu
Soutien technique & logistique : Manuel Goepfert

Contact : metmap@orbifly.com




SOURCES & CREDITS :

   NOAA